sensor_id;sensor_type;location;lat;lon;timestamp;P1;durP1;ratioP1;P2;durP2;ratioP2
2618;SDS011;1319;52.346;13.096;2023-01-01T00:00:46;15.30;;;8.10;;
2618;SDS011;1319;52.346;13.096;2023-01-01T00:03:12;9.97;;;6.13;;
2618;SDS011;1319;52.346;13.096;2023-01-01T00:05:37;9.07;;;6.07;;
2618;SDS011;1319;52.346;13.096;2023-01-01T00:08:03;8.07;;;5.10;;
2618;SDS011;1319;52.346;13.096;2023-01-01T00:10:28;14.57;;;5.43;;
2618;SDS011;1319;52.346;13.096;2023-01-01T00:12:54;10.27;;;4.60;;
2618;SDS011;1319;52.346;13.096;2023-01-01T00:15:19;8.93;;;4.80;;
2618;SDS011;1319;52.346;13.096;2023-01-01T00:17:45;9.17;;;4.53;;
2618;SDS011;1319;52.346;13.096;2023-01-01T00:20:10;9.27;;;4.90;;
2618;SDS011;1319;52.346;13.096;2023-01-01T00:22:35;7.70;;;4.20;;
2618;SDS011;1319;52.346;13.096;2023-01-01T00:25:00;10.83;;;4.33;;
2618;SDS011;1319;52.346;13.096;2023-01-01T00:27:26;6.10;;;3.93;;
2618;SDS011;1319;52.346;13.096;2023-01-01T00:29:51;6.43;;;3.53;;
2618;SDS011;1319;52.346;13.096;2023-01-01T00:32:16;6.50;;;3.80;;
2618;SDS011;1319;52.346;13.096;2023-01-01T00:34:41;5.37;;;3.23;;
2618;SDS011;1319;52.346;13.096;2023-01-01T00:37:06;4.53;;;3.00;;
2618;SDS011;1319;52.346;13.096;2023-01-01T00:39:32;5.47;;;3.10;;
2618;SDS011;1319;52.346;13.096;2023-01-01T00:41:57;8.50;;;3.10;;
2618;SDS011;1319;52.346;13.096;2023-01-01T00:44:22;7.03;;;3.00;;
2618;SDS011;1319;52.346;13.096;2023-01-01T00:46:47;4.77;;;2.77;;
2618;SDS011;1319;52.346;13.096;2023-01-01T00:49:12;9.43;;;3.50;;
2618;SDS011;1319;52.346;13.096;2023-01-01T00:51:38;7.67;;;2.90;;
2618;SDS011;1319;52.346;13.096;2023-01-01T00:54:03;7.27;;;3.27;;
2618;SDS011;1319;52.346;13.096;2023-01-01T00:56:28;8.87;;;3.07;;
2618;SDS011;1319;52.346;13.096;2023-01-01T00:58:53;10.77;;;4.03;;
2618;SDS011;1319;52.346;13.096;2023-01-01T01:01:19;9.50;;;3.17;;
2618;SDS011;1319;52.346;13.096;2023-01-01T01:03:44;6.13;;;3.23;;
2618;SDS011;1319;52.346;13.096;2023-01-01T01:06:10;7.30;;;2.93;;
2618;SDS011;1319;52.346;13.096;2023-01-01T01:08:37;7.23;;;3.50;;
2618;SDS011;1319;52.346;13.096;2023-01-01T01:11:04;9.47;;;3.40;;
2618;SDS011;1319;52.346;13.096;2023-01-01T01:13:29;12.73;;;3.77;;
2618;SDS011;1319;52.346;13.096;2023-01-01T01:15:54;10.43;;;3.53;;
2618;SDS011;1319;52.346;13.096;2023-01-01T01:18:19;5.50;;;3.30;;
2618;SDS011;1319;52.346;13.096;2023-01-01T01:20:50;13.20;;;3.40;;
2618;SDS011;1319;52.346;13.096;2023-01-01T01:23:16;5.77;;;3.40;;
2618;SDS011;1319;52.346;13.096;2023-01-01T01:25:41;10.60;;;3.50;;
2618;SDS011;1319;52.346;13.096;2023-01-01T01:28:06;7.40;;;3.40;;
2618;SDS011;1319;52.346;13.096;2023-01-01T01:30:31;10.00;;;3.60;;
2618;SDS011;1319;52.346;13.096;2023-01-01T01:32:57;5.07;;;3.50;;
2618;SDS011;1319;52.346;13.096;2023-01-01T01:35:22;7.93;;;3.90;;
2618;SDS011;1319;52.346;13.096;2023-01-01T01:37:47;8.07;;;3.77;;
2618;SDS011;1319;52.346;13.096;2023-01-01T01:40:12;6.83;;;4.07;;
2618;SDS011;1319;52.346;13.096;2023-01-01T01:42:43;6.87;;;3.93;;
2618;SDS011;1319;52.346;13.096;2023-01-01T01:45:09;10.97;;;4.57;;
2618;SDS011;1319;52.346;13.096;2023-01-01T01:50:27;5.87;;;4.20;;
2618;SDS011;1319;52.346;13.096;2023-01-01T01:55:28;11.20;;;4.63;;
2618;SDS011;1319;52.346;13.096;2023-01-01T01:57:54;8.80;;;4.70;;
2618;SDS011;1319;52.346;13.096;2023-01-01T02:00:20;7.27;;;4.20;;
2618;SDS011;1319;52.346;13.096;2023-01-01T02:02:47;9.60;;;4.10;;
2618;SDS011;1319;52.346;13.096;2023-01-01T02:05:14;9.97;;;5.40;;
2618;SDS011;1319;52.346;13.096;2023-01-01T02:07:40;9.07;;;4.63;;
2618;SDS011;1319;52.346;13.096;2023-01-01T02:10:06;12.93;;;5.10;;
2618;SDS011;1319;52.346;13.096;2023-01-01T02:12:31;13.17;;;4.53;;
2618;SDS011;1319;52.346;13.096;2023-01-01T02:14:57;12.23;;;5.40;;
2618;SDS011;1319;52.346;13.096;2023-01-01T02:22:51;7.53;;;5.00;;
2618;SDS011;1319;52.346;13.096;2023-01-01T02:30:32;10.70;;;5.17;;
2618;SDS011;1319;52.346;13.096;2023-01-01T02:33:00;13.97;;;5.23;;
2618;SDS011;1319;52.346;13.096;2023-01-01T02:35:27;12.77;;;5.20;;
2618;SDS011;1319;52.346;13.096;2023-01-01T02:40:35;8.77;;;5.20;;
2618;SDS011;1319;52.346;13.096;2023-01-01T02:43:02;12.60;;;4.70;;
2618;SDS011;1319;52.346;13.096;2023-01-01T02:45:27;9.40;;;5.20;;
2618;SDS011;1319;52.346;13.096;2023-01-01T02:47:53;7.67;;;5.10;;
2618;SDS011;1319;52.346;13.096;2023-01-01T02:50:19;11.07;;;4.87;;
2618;SDS011;1319;52.346;13.096;2023-01-01T02:55:16;10.87;;;5.03;;
2618;SDS011;1319;52.346;13.096;2023-01-01T02:57:47;12.27;;;4.93;;
2618;SDS011;1319;52.346;13.096;2023-01-01T03:00:15;8.87;;;4.57;;
2618;SDS011;1319;52.346;13.096;2023-01-01T03:08:39;11.23;;;4.53;;
2618;SDS011;1319;52.346;13.096;2023-01-01T03:11:10;7.60;;;4.30;;
2618;SDS011;1319;52.346;13.096;2023-01-01T03:16:09;12.27;;;4.73;;
2618;SDS011;1319;52.346;13.096;2023-01-01T03:18:46;9.77;;;4.87;;
2618;SDS011;1319;52.346;13.096;2023-01-01T03:21:15;8.63;;;4.50;;
2618;SDS011;1319;52.346;13.096;2023-01-01T03:23:47;12.50;;;4.80;;
2618;SDS011;1319;52.346;13.096;2023-01-01T03:26:14;12.63;;;4.40;;
2618;SDS011;1319;52.346;13.096;2023-01-01T03:28:43;15.10;;;4.67;;
2618;SDS011;1319;52.346;13.096;2023-01-01T03:31:10;8.67;;;4.43;;
2618;SDS011;1319;52.346;13.096;2023-01-01T03:33:38;11.53;;;4.40;;
2618;SDS011;1319;52.346;13.096;2023-01-01T03:38:30;10.23;;;4.70;;
2618;SDS011;1319;52.346;13.096;2023-01-01T03:41:02;13.47;;;4.33;;
2618;SDS011;1319;52.346;13.096;2023-01-01T03:43:34;9.70;;;4.77;;
2618;SDS011;1319;52.346;13.096;2023-01-01T03:46:01;10.17;;;4.80;;
2618;SDS011;1319;52.346;13.096;2023-01-01T03:48:28;9.50;;;5.03;;
2618;SDS011;1319;52.346;13.096;2023-01-01T03:51:14;8.00;;;4.67;;
2618;SDS011;1319;52.346;13.096;2023-01-01T03:53:41;9.60;;;4.57;;
2618;SDS011;1319;52.346;13.096;2023-01-01T03:56:15;12.43;;;4.70;;
2618;SDS011;1319;52.346;13.096;2023-01-01T03:58:54;8.53;;;5.20;;
2618;SDS011;1319;52.346;13.096;2023-01-01T04:01:41;11.47;;;4.60;;
2618;SDS011;1319;52.346;13.096;2023-01-01T04:04:08;9.60;;;4.80;;
2618;SDS011;1319;52.346;13.096;2023-01-01T04:06:34;11.77;;;4.80;;
2618;SDS011;1319;52.346;13.096;2023-01-01T04:08:59;10.77;;;5.13;;
2618;SDS011;1319;52.346;13.096;2023-01-01T04:11:27;9.20;;;4.70;;
2618;SDS011;1319;52.346;13.096;2023-01-01T04:14:11;8.27;;;4.80;;
2618;SDS011;1319;52.346;13.096;2023-01-01T04:16:36;11.10;;;4.60;;
2618;SDS011;1319;52.346;13.096;2023-01-01T04:19:01;11.87;;;4.83;;
2618;SDS011;1319;52.346;13.096;2023-01-01T04:21:26;9.30;;;4.70;;
2618;SDS011;1319;52.346;13.096;2023-01-01T04:23:51;8.23;;;4.20;;
2618;SDS011;1319;52.346;13.096;2023-01-01T04:26:17;12.63;;;4.70;;
2618;SDS011;1319;52.346;13.096;2023-01-01T04:28:42;12.30;;;4.63;;
2618;SDS011;1319;52.346;13.096;2023-01-01T04:31:08;9.40;;;4.40;;
2618;SDS011;1319;52.346;13.096;2023-01-01T04:33:33;9.27;;;4.97;;
2618;SDS011;1319;52.346;13.096;2023-01-01T04:36:02;9.10;;;4.70;;
2618;SDS011;1319;52.346;13.096;2023-01-01T04:38:28;7.57;;;4.30;;
2618;SDS011;1319;52.346;13.096;2023-01-01T04:40:56;9.00;;;4.40;;
2618;SDS011;1319;52.346;13.096;2023-01-01T04:43:22;15.03;;;4.90;;
2618;SDS011;1319;52.346;13.096;2023-01-01T04:45:54;11.17;;;4.20;;
2618;SDS011;1319;52.346;13.096;2023-01-01T04:48:19;7.60;;;4.40;;
2618;SDS011;1319;52.346;13.096;2023-01-01T04:50:44;10.10;;;4.27;;
2618;SDS011;1319;52.346;13.096;2023-01-01T04:53:17;7.33;;;4.10;;
2618;SDS011;1319;52.346;13.096;2023-01-01T04:55:42;10.93;;;4.73;;
2618;SDS011;1319;52.346;13.096;2023-01-01T04:58:07;10.47;;;4.43;;
2618;SDS011;1319;52.346;13.096;2023-01-01T05:00:32;8.63;;;4.47;;
2618;SDS011;1319;52.346;13.096;2023-01-01T05:02:58;8.67;;;3.83;;
2618;SDS011;1319;52.346;13.096;2023-01-01T05:05:23;7.17;;;4.23;;
2618;SDS011;1319;52.346;13.096;2023-01-01T05:07:48;7.17;;;3.77;;
2618;SDS011;1319;52.346;13.096;2023-01-01T05:10:13;9.03;;;3.60;;
2618;SDS011;1319;52.346;13.096;2023-01-01T05:12:38;17.47;;;4.50;;
2618;SDS011;1319;52.346;13.096;2023-01-01T05:15:04;9.43;;;3.67;;
2618;SDS011;1319;52.346;13.096;2023-01-01T05:17:29;7.63;;;3.60;;
2618;SDS011;1319;52.346;13.096;2023-01-01T05:19:54;7.97;;;3.53;;
2618;SDS011;1319;52.346;13.096;2023-01-01T05:22:19;10.67;;;3.60;;
2618;SDS011;1319;52.346;13.096;2023-01-01T05:24:44;10.07;;;3.70;;
2618;SDS011;1319;52.346;13.096;2023-01-01T05:27:10;7.30;;;3.77;;
2618;SDS011;1319;52.346;13.096;2023-01-01T05:29:35;10.97;;;3.67;;
2618;SDS011;1319;52.346;13.096;2023-01-01T05:32:00;9.30;;;3.47;;
2618;SDS011;1319;52.346;13.096;2023-01-01T05:34:26;9.47;;;3.50;;
2618;SDS011;1319;52.346;13.096;2023-01-01T05:36:51;5.43;;;2.90;;
2618;SDS011;1319;52.346;13.096;2023-01-01T05:39:16;9.70;;;3.07;;
2618;SDS011;1319;52.346;13.096;2023-01-01T05:41:41;8.80;;;3.00;;
2618;SDS011;1319;52.346;13.096;2023-01-01T05:44:06;8.80;;;3.20;;
2618;SDS011;1319;52.346;13.096;2023-01-01T05:46:32;12.87;;;3.53;;
2618;SDS011;1319;52.346;13.096;2023-01-01T05:48:58;6.53;;;3.13;;
2618;SDS011;1319;52.346;13.096;2023-01-01T05:51:24;10.33;;;3.77;;
2618;SDS011;1319;52.346;13.096;2023-01-01T05:53:50;6.80;;;2.87;;
2618;SDS011;1319;52.346;13.096;2023-01-01T05:56:15;6.03;;;3.10;;
2618;SDS011;1319;52.346;13.096;2023-01-01T05:58:40;4.90;;;2.87;;
2618;SDS011;1319;52.346;13.096;2023-01-01T06:03:34;6.87;;;2.80;;
2618;SDS011;1319;52.346;13.096;2023-01-01T06:06:04;5.93;;;2.83;;
2618;SDS011;1319;52.346;13.096;2023-01-01T06:08:29;18.93;;;3.03;;
2618;SDS011;1319;52.346;13.096;2023-01-01T06:11:00;8.97;;;3.37;;
2618;SDS011;1319;52.346;13.096;2023-01-01T06:13:26;6.87;;;3.13;;
2618;SDS011;1319;52.346;13.096;2023-01-01T06:15:52;6.67;;;2.97;;
2618;SDS011;1319;52.346;13.096;2023-01-01T06:18:17;9.93;;;3.07;;
2618;SDS011;1319;52.346;13.096;2023-01-01T06:20:42;8.10;;;2.60;;
2618;SDS011;1319;52.346;13.096;2023-01-01T06:23:08;7.93;;;2.97;;
2618;SDS011;1319;52.346;13.096;2023-01-01T06:25:33;5.67;;;2.80;;
2618;SDS011;1319;52.346;13.096;2023-01-01T06:27:58;4.50;;;2.80;;
2618;SDS011;1319;52.346;13.096;2023-01-01T06:30:24;6.87;;;3.00;;
2618;SDS011;1319;52.346;13.096;2023-01-01T06:32:49;8.73;;;3.40;;
2618;SDS011;1319;52.346;13.096;2023-01-01T06:35:14;4.77;;;3.03;;
2618;SDS011;1319;52.346;13.096;2023-01-01T06:37:39;6.90;;;3.20;;
2618;SDS011;1319;52.346;13.096;2023-01-01T06:40:05;6.50;;;3.27;;
2618;SDS011;1319;52.346;13.096;2023-01-01T06:42:30;6.83;;;3.30;;
2618;SDS011;1319;52.346;13.096;2023-01-01T06:44:55;11.43;;;3.50;;
2618;SDS011;1319;52.346;13.096;2023-01-01T06:47:20;5.23;;;3.27;;
2618;SDS011;1319;52.346;13.096;2023-01-01T06:49:45;7.20;;;3.07;;
2618;SDS011;1319;52.346;13.096;2023-01-01T06:52:11;5.30;;;3.13;;
2618;SDS011;1319;52.346;13.096;2023-01-01T06:54:36;12.33;;;3.60;;
2618;SDS011;1319;52.346;13.096;2023-01-01T06:57:01;6.87;;;3.43;;
2618;SDS011;1319;52.346;13.096;2023-01-01T06:59:26;7.73;;;3.33;;
2618;SDS011;1319;52.346;13.096;2023-01-01T07:01:51;8.27;;;3.33;;
2618;SDS011;1319;52.346;13.096;2023-01-01T07:04:17;12.00;;;3.50;;
2618;SDS011;1319;52.346;13.096;2023-01-01T07:06:42;6.70;;;3.40;;
2618;SDS011;1319;52.346;13.096;2023-01-01T07:09:07;5.67;;;3.30;;
2618;SDS011;1319;52.346;13.096;2023-01-01T07:11:33;5.90;;;3.43;;
2618;SDS011;1319;52.346;13.096;2023-01-01T07:13:58;12.47;;;3.50;;
2618;SDS011;1319;52.346;13.096;2023-01-01T07:16:23;9.57;;;3.73;;
2618;SDS011;1319;52.346;13.096;2023-01-01T07:18:49;7.00;;;3.20;;
2618;SDS011;1319;52.346;13.096;2023-01-01T07:21:25;6.60;;;3.90;;
2618;SDS011;1319;52.346;13.096;2023-01-01T07:23:51;8.77;;;3.80;;
2618;SDS011;1319;52.346;13.096;2023-01-01T07:26:16;11.43;;;3.70;;
2618;SDS011;1319;52.346;13.096;2023-01-01T07:28:41;9.87;;;4.37;;
2618;SDS011;1319;52.346;13.096;2023-01-01T07:31:08;6.70;;;3.67;;
2618;SDS011;1319;52.346;13.096;2023-01-01T07:33:33;6.60;;;3.73;;
2618;SDS011;1319;52.346;13.096;2023-01-01T07:35:58;6.17;;;3.67;;
2618;SDS011;1319;52.346;13.096;2023-01-01T07:38:23;6.57;;;3.43;;
2618;SDS011;1319;52.346;13.096;2023-01-01T07:40:49;9.27;;;3.73;;
2618;SDS011;1319;52.346;13.096;2023-01-01T07:43:14;6.27;;;3.83;;
2618;SDS011;1319;52.346;13.096;2023-01-01T07:45:39;8.60;;;3.67;;
2618;SDS011;1319;52.346;13.096;2023-01-01T07:48:04;10.80;;;3.90;;
2618;SDS011;1319;52.346;13.096;2023-01-01T07:50:30;6.83;;;4.07;;
2618;SDS011;1319;52.346;13.096;2023-01-01T07:52:56;9.90;;;4.07;;
2618;SDS011;1319;52.346;13.096;2023-01-01T07:55:21;11.50;;;3.80;;
2618;SDS011;1319;52.346;13.096;2023-01-01T07:57:47;11.77;;;3.90;;
2618;SDS011;1319;52.346;13.096;2023-01-01T08:00:13;7.93;;;3.87;;
2618;SDS011;1319;52.346;13.096;2023-01-01T08:02:39;9.50;;;3.83;;
2618;SDS011;1319;52.346;13.096;2023-01-01T08:05:04;6.97;;;3.60;;
2618;SDS011;1319;52.346;13.096;2023-01-01T08:07:30;7.33;;;4.00;;
2618;SDS011;1319;52.346;13.096;2023-01-01T08:09:55;6.50;;;3.93;;
2618;SDS011;1319;52.346;13.096;2023-01-01T08:12:20;11.40;;;4.43;;
2618;SDS011;1319;52.346;13.096;2023-01-01T08:14:45;11.00;;;4.07;;
2618;SDS011;1319;52.346;13.096;2023-01-01T08:17:10;8.37;;;4.43;;
2618;SDS011;1319;52.346;13.096;2023-01-01T08:19:36;9.00;;;4.30;;
2618;SDS011;1319;52.346;13.096;2023-01-01T08:22:01;8.23;;;3.97;;
2618;SDS011;1319;52.346;13.096;2023-01-01T08:24:26;9.30;;;4.40;;
2618;SDS011;1319;52.346;13.096;2023-01-01T08:26:51;8.73;;;4.53;;
2618;SDS011;1319;52.346;13.096;2023-01-01T08:29:17;8.67;;;4.00;;
2618;SDS011;1319;52.346;13.096;2023-01-01T08:31:42;7.53;;;4.30;;
2618;SDS011;1319;52.346;13.096;2023-01-01T08:34:07;6.30;;;4.20;;
2618;SDS011;1319;52.346;13.096;2023-01-01T08:36:33;7.07;;;4.03;;
2618;SDS011;1319;52.346;13.096;2023-01-01T08:38:58;6.67;;;3.40;;
2618;SDS011;1319;52.346;13.096;2023-01-01T08:41:23;7.87;;;3.33;;
2618;SDS011;1319;52.346;13.096;2023-01-01T08:43:48;9.53;;;4.23;;
2618;SDS011;1319;52.346;13.096;2023-01-01T08:46:14;10.17;;;3.80;;
2618;SDS011;1319;52.346;13.096;2023-01-01T08:48:39;6.53;;;3.80;;
2618;SDS011;1319;52.346;13.096;2023-01-01T08:51:04;6.57;;;3.37;;
2618;SDS011;1319;52.346;13.096;2023-01-01T08:53:29;7.23;;;4.17;;
2618;SDS011;1319;52.346;13.096;2023-01-01T08:55:59;6.87;;;3.70;;
2618;SDS011;1319;52.346;13.096;2023-01-01T08:58:25;6.13;;;3.73;;
2618;SDS011;1319;52.346;13.096;2023-01-01T09:00:50;8.97;;;4.03;;
2618;SDS011;1319;52.346;13.096;2023-01-01T09:03:16;5.93;;;3.67;;
2618;SDS011;1319;52.346;13.096;2023-01-01T09:05:41;6.60;;;3.47;;
2618;SDS011;1319;52.346;13.096;2023-01-01T09:08:10;5.27;;;3.77;;
2618;SDS011;1319;52.346;13.096;2023-01-01T09:10:35;7.63;;;3.43;;
2618;SDS011;1319;52.346;13.096;2023-01-01T09:13:00;5.47;;;3.63;;
2618;SDS011;1319;52.346;13.096;2023-01-01T09:15:25;6.90;;;3.47;;
2618;SDS011;1319;52.346;13.096;2023-01-01T09:17:50;6.70;;;3.80;;
2618;SDS011;1319;52.346;13.096;2023-01-01T09:20:16;7.40;;;3.60;;
2618;SDS011;1319;52.346;13.096;2023-01-01T09:22:41;9.63;;;3.80;;
2618;SDS011;1319;52.346;13.096;2023-01-01T09:25:06;7.03;;;3.83;;
2618;SDS011;1319;52.346;13.096;2023-01-01T09:27:32;4.90;;;3.17;;
2618;SDS011;1319;52.346;13.096;2023-01-01T09:29:57;11.67;;;3.40;;
2618;SDS011;1319;52.346;13.096;2023-01-01T09:32:22;5.27;;;3.50;;
2618;SDS011;1319;52.346;13.096;2023-01-01T09:34:47;4.80;;;3.30;;
2618;SDS011;1319;52.346;13.096;2023-01-01T09:37:13;3.73;;;3.37;;
2618;SDS011;1319;52.346;13.096;2023-01-01T09:39:38;8.40;;;3.60;;
2618;SDS011;1319;52.346;13.096;2023-01-01T09:47:55;11.27;;;3.67;;
2618;SDS011;1319;52.346;13.096;2023-01-01T09:50:02;3.83;;;2.80;;
2618;SDS011;1319;52.346;13.096;2023-01-01T09:52:34;4.03;;;3.00;;
2618;SDS011;1319;52.346;13.096;2023-01-01T09:54:59;5.23;;;3.00;;
2618;SDS011;1319;52.346;13.096;2023-01-01T09:57:27;5.20;;;3.10;;
2618;SDS011;1319;52.346;13.096;2023-01-01T09:59:53;5.80;;;3.00;;
2618;SDS011;1319;52.346;13.096;2023-01-01T10:02:27;7.93;;;3.10;;
2618;SDS011;1319;52.346;13.096;2023-01-01T10:05:10;8.27;;;3.50;;
2618;SDS011;1319;52.346;13.096;2023-01-01T10:07:42;8.23;;;3.40;;
2618;SDS011;1319;52.346;13.096;2023-01-01T10:10:33;3.30;;;2.77;;
2618;SDS011;1319;52.346;13.096;2023-01-01T10:15:38;3.13;;;2.60;;
2618;SDS011;1319;52.346;13.096;2023-01-01T10:18:05;7.90;;;3.33;;
2618;SDS011;1319;52.346;13.096;2023-01-01T10:20:37;5.70;;;2.80;;
2618;SDS011;1319;52.346;13.096;2023-01-01T10:23:06;4.50;;;2.80;;
2618;SDS011;1319;52.346;13.096;2023-01-01T10:25:36;6.60;;;3.00;;
2618;SDS011;1319;52.346;13.096;2023-01-01T10:28:04;5.17;;;3.00;;
2618;SDS011;1319;52.346;13.096;2023-01-01T10:30:30;5.77;;;2.57;;
2618;SDS011;1319;52.346;13.096;2023-01-01T10:32:56;6.67;;;3.00;;
2618;SDS011;1319;52.346;13.096;2023-01-01T10:35:33;6.17;;;2.90;;
2618;SDS011;1319;52.346;13.096;2023-01-01T10:37:59;5.83;;;2.87;;
2618;SDS011;1319;52.346;13.096;2023-01-01T10:40:25;9.93;;;2.70;;
2618;SDS011;1319;52.346;13.096;2023-01-01T10:43:00;5.47;;;2.87;;
2618;SDS011;1319;52.346;13.096;2023-01-01T10:45:40;5.87;;;2.80;;
2618;SDS011;1319;52.346;13.096;2023-01-01T10:48:11;7.17;;;2.80;;
2618;SDS011;1319;52.346;13.096;2023-01-01T10:50:44;5.67;;;2.80;;
2618;SDS011;1319;52.346;13.096;2023-01-01T10:53:17;7.83;;;2.60;;
2618;SDS011;1319;52.346;13.096;2023-01-01T10:55:47;5.80;;;2.50;;
2618;SDS011;1319;52.346;13.096;2023-01-01T11:00:57;5.83;;;2.60;;
2618;SDS011;1319;52.346;13.096;2023-01-01T11:03:23;4.10;;;2.60;;
2618;SDS011;1319;52.346;13.096;2023-01-01T11:06:32;5.27;;;2.63;;
2618;SDS011;1319;52.346;13.096;2023-01-01T11:08:38;6.97;;;2.60;;
2618;SDS011;1319;52.346;13.096;2023-01-01T11:11:04;3.23;;;2.37;;
2618;SDS011;1319;52.346;13.096;2023-01-01T11:13:29;5.73;;;2.40;;
2618;SDS011;1319;52.346;13.096;2023-01-01T11:15:55;7.73;;;2.70;;
2618;SDS011;1319;52.346;13.096;2023-01-01T11:18:21;8.13;;;2.60;;
2618;SDS011;1319;52.346;13.096;2023-01-01T11:20:54;8.03;;;2.83;;
2618;SDS011;1319;52.346;13.096;2023-01-01T11:28:37;4.60;;;2.70;;
2618;SDS011;1319;52.346;13.096;2023-01-01T11:33:32;4.87;;;2.50;;
2618;SDS011;1319;52.346;13.096;2023-01-01T11:35:58;6.07;;;2.50;;
2618;SDS011;1319;52.346;13.096;2023-01-01T11:38:23;6.00;;;2.63;;
2618;SDS011;1319;52.346;13.096;2023-01-01T11:40:52;6.93;;;2.23;;
2618;SDS011;1319;52.346;13.096;2023-01-01T11:43:22;7.13;;;2.73;;
2618;SDS011;1319;52.346;13.096;2023-01-01T11:45:48;5.80;;;2.50;;
2618;SDS011;1319;52.346;13.096;2023-01-01T11:48:16;5.07;;;2.60;;
2618;SDS011;1319;52.346;13.096;2023-01-01T11:50:54;4.37;;;2.30;;
2618;SDS011;1319;52.346;13.096;2023-01-01T11:58:18;10.10;;;2.37;;
2618;SDS011;1319;52.346;13.096;2023-01-01T12:00:46;5.40;;;2.73;;
2618;SDS011;1319;52.346;13.096;2023-01-01T12:05:43;4.07;;;2.60;;
2618;SDS011;1319;52.346;13.096;2023-01-01T12:08:11;8.10;;;3.07;;
2618;SDS011;1319;52.346;13.096;2023-01-01T12:10:48;5.47;;;2.50;;
2618;SDS011;1319;52.346;13.096;2023-01-01T12:13:16;5.57;;;2.93;;
2618;SDS011;1319;52.346;13.096;2023-01-01T12:15:55;8.53;;;2.47;;
2618;SDS011;1319;52.346;13.096;2023-01-01T12:18:24;6.20;;;2.50;;
2618;SDS011;1319;52.346;13.096;2023-01-01T12:21:25;9.23;;;2.90;;
2618;SDS011;1319;52.346;13.096;2023-01-01T12:23:42;4.60;;;2.67;;
2618;SDS011;1319;52.346;13.096;2023-01-01T12:26:19;6.07;;;2.30;;
2618;SDS011;1319;52.346;13.096;2023-01-01T12:28:52;7.00;;;2.73;;
2618;SDS011;1319;52.346;13.096;2023-01-01T12:34:08;7.33;;;3.10;;
2618;SDS011;1319;52.346;13.096;2023-01-01T12:36:56;5.57;;;2.63;;
2618;SDS011;1319;52.346;13.096;2023-01-01T12:41:56;7.97;;;2.67;;
2618;SDS011;1319;52.346;13.096;2023-01-01T12:44:33;7.70;;;2.77;;
2618;SDS011;1319;52.346;13.096;2023-01-01T12:47:13;6.37;;;2.70;;
2618;SDS011;1319;52.346;13.096;2023-01-01T12:49:53;4.80;;;2.50;;
2618;SDS011;1319;52.346;13.096;2023-01-01T12:57:26;5.07;;;2.77;;
2618;SDS011;1319;52.346;13.096;2023-01-01T12:59:54;6.57;;;3.00;;
2618;SDS011;1319;52.346;13.096;2023-01-01T13:02:29;4.40;;;2.60;;
2618;SDS011;1319;52.346;13.096;2023-01-01T13:05:00;3.43;;;2.60;;
2618;SDS011;1319;52.346;13.096;2023-01-01T13:07:35;5.80;;;2.83;;
2618;SDS011;1319;52.346;13.096;2023-01-01T13:10:07;5.20;;;2.53;;
2618;SDS011;1319;52.346;13.096;2023-01-01T13:12:34;3.77;;;2.80;;
2618;SDS011;1319;52.346;13.096;2023-01-01T13:15:01;8.43;;;2.47;;
2618;SDS011;1319;52.346;13.096;2023-01-01T13:17:50;6.90;;;2.63;;
2618;SDS011;1319;52.346;13.096;2023-01-01T13:20:21;6.60;;;2.87;;
2618;SDS011;1319;52.346;13.096;2023-01-01T13:22:47;6.53;;;2.50;;
2618;SDS011;1319;52.346;13.096;2023-01-01T13:43:49;3.73;;;2.80;;
2618;SDS011;1319;52.346;13.096;2023-01-01T13:46:15;9.63;;;3.00;;
2618;SDS011;1319;52.346;13.096;2023-01-01T14:01:17;7.47;;;3.03;;
2618;SDS011;1319;52.346;13.096;2023-01-01T14:03:46;5.87;;;2.80;;
2618;SDS011;1319;52.346;13.096;2023-01-01T14:09:05;5.67;;;2.83;;
2618;SDS011;1319;52.346;13.096;2023-01-01T14:11:31;10.10;;;2.90;;
2618;SDS011;1319;52.346;13.096;2023-01-01T14:13:57;5.57;;;2.80;;
2618;SDS011;1319;52.346;13.096;2023-01-01T14:16:23;12.13;;;3.00;;
2618;SDS011;1319;52.346;13.096;2023-01-01T14:18:50;12.47;;;3.20;;
2618;SDS011;1319;52.346;13.096;2023-01-01T14:21:21;10.27;;;3.50;;
2618;SDS011;1319;52.346;13.096;2023-01-01T14:23:50;8.63;;;2.70;;
2618;SDS011;1319;52.346;13.096;2023-01-01T14:26:21;15.87;;;3.27;;
2618;SDS011;1319;52.346;13.096;2023-01-01T14:28:46;6.40;;;2.67;;
2618;SDS011;1319;52.346;13.096;2023-01-01T14:31:13;6.37;;;3.03;;
2618;SDS011;1319;52.346;13.096;2023-01-01T14:33:39;6.07;;;2.70;;
2618;SDS011;1319;52.346;13.096;2023-01-01T14:36:05;6.57;;;3.23;;
2618;SDS011;1319;52.346;13.096;2023-01-01T14:38:42;8.57;;;3.20;;
2618;SDS011;1319;52.346;13.096;2023-01-01T14:41:09;7.00;;;3.33;;
2618;SDS011;1319;52.346;13.096;2023-01-01T14:43:36;6.47;;;2.80;;
2618;SDS011;1319;52.346;13.096;2023-01-01T14:46:01;10.13;;;3.37;;
2618;SDS011;1319;52.346;13.096;2023-01-01T14:48:26;11.00;;;3.13;;
2618;SDS011;1319;52.346;13.096;2023-01-01T14:50:52;8.67;;;3.27;;
2618;SDS011;1319;52.346;13.096;2023-01-01T14:53:19;7.47;;;2.90;;
2618;SDS011;1319;52.346;13.096;2023-01-01T14:55:47;4.47;;;2.90;;
2618;SDS011;1319;52.346;13.096;2023-01-01T14:58:22;6.60;;;3.17;;
2618;SDS011;1319;52.346;13.096;2023-01-01T15:00:49;4.50;;;3.07;;
2618;SDS011;1319;52.346;13.096;2023-01-01T15:03:15;7.47;;;3.47;;
2618;SDS011;1319;52.346;13.096;2023-01-01T15:05:41;11.73;;;3.30;;
2618;SDS011;1319;52.346;13.096;2023-01-01T15:08:17;4.93;;;2.70;;
2618;SDS011;1319;52.346;13.096;2023-01-01T15:10:42;6.03;;;3.07;;
2618;SDS011;1319;52.346;13.096;2023-01-01T15:13:12;11.10;;;3.07;;
2618;SDS011;1319;52.346;13.096;2023-01-01T15:15:41;5.57;;;3.10;;
2618;SDS011;1319;52.346;13.096;2023-01-01T15:20:52;11.07;;;3.40;;
2618;SDS011;1319;52.346;13.096;2023-01-01T15:23:17;10.47;;;3.27;;
2618;SDS011;1319;52.346;13.096;2023-01-01T15:25:43;7.27;;;3.23;;
2618;SDS011;1319;52.346;13.096;2023-01-01T15:28:13;10.80;;;4.60;;
2618;SDS011;1319;52.346;13.096;2023-01-01T15:30:39;9.37;;;4.30;;
2618;SDS011;1319;52.346;13.096;2023-01-01T15:33:08;11.60;;;3.77;;
2618;SDS011;1319;52.346;13.096;2023-01-01T15:35:37;6.57;;;3.13;;
2618;SDS011;1319;52.346;13.096;2023-01-01T15:38:09;6.53;;;3.40;;
2618;SDS011;1319;52.346;13.096;2023-01-01T15:40:35;8.30;;;3.40;;
2618;SDS011;1319;52.346;13.096;2023-01-01T15:45:27;12.13;;;3.30;;
2618;SDS011;1319;52.346;13.096;2023-01-01T15:48:45;6.50;;;3.23;;
2618;SDS011;1319;52.346;13.096;2023-01-01T15:50:39;7.33;;;2.73;;
2618;SDS011;1319;52.346;13.096;2023-01-01T15:53:09;6.50;;;3.20;;
2618;SDS011;1319;52.346;13.096;2023-01-01T15:55:35;8.17;;;3.20;;
2618;SDS011;1319;52.346;13.096;2023-01-01T15:58:01;9.17;;;3.30;;
2618;SDS011;1319;52.346;13.096;2023-01-01T16:00:28;8.67;;;2.80;;
2618;SDS011;1319;52.346;13.096;2023-01-01T16:03:01;4.87;;;2.93;;
2618;SDS011;1319;52.346;13.096;2023-01-01T16:05:28;7.77;;;3.40;;
2618;SDS011;1319;52.346;13.096;2023-01-01T16:08:00;9.40;;;3.20;;
2618;SDS011;1319;52.346;13.096;2023-01-01T16:10:25;10.70;;;3.10;;
2618;SDS011;1319;52.346;13.096;2023-01-01T16:12:51;6.97;;;3.10;;
2618;SDS011;1319;52.346;13.096;2023-01-01T16:15:16;6.03;;;3.20;;
2618;SDS011;1319;52.346;13.096;2023-01-01T16:17:41;5.50;;;3.30;;
2618;SDS011;1319;52.346;13.096;2023-01-01T16:20:12;11.13;;;3.10;;
2618;SDS011;1319;52.346;13.096;2023-01-01T16:22:37;5.60;;;3.30;;
2618;SDS011;1319;52.346;13.096;2023-01-01T16:25:10;5.27;;;3.03;;
2618;SDS011;1319;52.346;13.096;2023-01-01T16:27:35;5.60;;;3.00;;
2618;SDS011;1319;52.346;13.096;2023-01-01T16:30:01;11.50;;;3.57;;
2618;SDS011;1319;52.346;13.096;2023-01-01T16:32:26;6.37;;;3.50;;
2618;SDS011;1319;52.346;13.096;2023-01-01T16:34:51;8.83;;;4.23;;
2618;SDS011;1319;52.346;13.096;2023-01-01T16:37:16;9.33;;;3.70;;
2618;SDS011;1319;52.346;13.096;2023-01-01T16:39:46;5.53;;;2.93;;
2618;SDS011;1319;52.346;13.096;2023-01-01T16:42:11;4.70;;;2.90;;
2618;SDS011;1319;52.346;13.096;2023-01-01T16:44:39;6.17;;;3.30;;
2618;SDS011;1319;52.346;13.096;2023-01-01T16:47:05;6.30;;;2.83;;
2618;SDS011;1319;52.346;13.096;2023-01-01T16:49:30;4.83;;;3.37;;